sensor_id;sensor_type;location;lat;lon;timestamp;P1;durP1;ratioP1;P2;durP2;ratioP2
8861;SDS011;4799;50.996;4.754;2024-01-06T00:01:49;11.73;;;6.37;;
8861;SDS011;4799;50.996;4.754;2024-01-06T00:04:15;13.50;;;7.47;;
8861;SDS011;4799;50.996;4.754;2024-01-06T00:06:40;12.20;;;6.70;;
8861;SDS011;4799;50.996;4.754;2024-01-06T00:09:06;10.57;;;7.03;;
8861;SDS011;4799;50.996;4.754;2024-01-06T00:11:32;11.37;;;6.50;;
8861;SDS011;4799;50.996;4.754;2024-01-06T00:13:58;12.77;;;6.73;;
8861;SDS011;4799;50.996;4.754;2024-01-06T00:16:23;10.30;;;6.33;;
8861;SDS011;4799;50.996;4.754;2024-01-06T00:18:49;9.33;;;6.17;;
8861;SDS011;4799;50.996;4.754;2024-01-06T00:21:15;13.07;;;6.97;;
8861;SDS011;4799;50.996;4.754;2024-01-06T00:23:41;11.70;;;6.77;;
8861;SDS011;4799;50.996;4.754;2024-01-06T00:26:07;10.57;;;6.50;;
8861;SDS011;4799;50.996;4.754;2024-01-06T00:28:33;11.63;;;7.00;;
8861;SDS011;4799;50.996;4.754;2024-01-06T00:31:00;12.60;;;7.10;;
8861;SDS011;4799;50.996;4.754;2024-01-06T00:33:25;12.60;;;7.50;;
8861;SDS011;4799;50.996;4.754;2024-01-06T00:35:51;16.90;;;8.40;;
8861;SDS011;4799;50.996;4.754;2024-01-06T00:38:17;11.63;;;7.20;;
8861;SDS011;4799;50.996;4.754;2024-01-06T00:40:43;10.03;;;7.00;;
8861;SDS011;4799;50.996;4.754;2024-01-06T00:43:08;12.70;;;7.33;;
8861;SDS011;4799;50.996;4.754;2024-01-06T00:45:34;14.13;;;6.93;;
8861;SDS011;4799;50.996;4.754;2024-01-06T00:48:00;14.30;;;7.23;;
8861;SDS011;4799;50.996;4.754;2024-01-06T00:50:25;11.47;;;7.33;;
8861;SDS011;4799;50.996;4.754;2024-01-06T00:52:51;12.53;;;7.27;;
8861;SDS011;4799;50.996;4.754;2024-01-06T00:55:21;13.63;;;6.97;;
8861;SDS011;4799;50.996;4.754;2024-01-06T00:57:47;10.67;;;7.77;;
8861;SDS011;4799;50.996;4.754;2024-01-06T01:00:13;14.33;;;7.80;;
8861;SDS011;4799;50.996;4.754;2024-01-06T01:02:39;12.10;;;7.90;;
8861;SDS011;4799;50.996;4.754;2024-01-06T01:05:05;11.83;;;8.73;;
8861;SDS011;4799;50.996;4.754;2024-01-06T01:07:32;13.23;;;9.53;;
8861;SDS011;4799;50.996;4.754;2024-01-06T01:09:58;12.30;;;9.57;;
8861;SDS011;4799;50.996;4.754;2024-01-06T01:12:24;11.43;;;8.67;;
8861;SDS011;4799;50.996;4.754;2024-01-06T01:14:50;11.57;;;9.47;;
8861;SDS011;4799;50.996;4.754;2024-01-06T01:17:16;12.17;;;9.43;;
8861;SDS011;4799;50.996;4.754;2024-01-06T01:19:42;13.00;;;9.67;;
8861;SDS011;4799;50.996;4.754;2024-01-06T01:22:08;11.50;;;9.60;;
8861;SDS011;4799;50.996;4.754;2024-01-06T01:24:34;12.43;;;9.23;;
8861;SDS011;4799;50.996;4.754;2024-01-06T01:26:59;13.30;;;9.37;;
8861;SDS011;4799;50.996;4.754;2024-01-06T01:29:25;9.27;;;7.87;;
8861;SDS011;4799;50.996;4.754;2024-01-06T01:31:51;10.13;;;8.93;;
8861;SDS011;4799;50.996;4.754;2024-01-06T01:34:17;12.53;;;8.13;;
8861;SDS011;4799;50.996;4.754;2024-01-06T01:36:42;8.43;;;7.20;;
8861;SDS011;4799;50.996;4.754;2024-01-06T01:39:10;9.63;;;8.10;;
8861;SDS011;4799;50.996;4.754;2024-01-06T01:41:36;9.63;;;7.33;;
8861;SDS011;4799;50.996;4.754;2024-01-06T01:44:02;9.07;;;7.80;;
8861;SDS011;4799;50.996;4.754;2024-01-06T01:46:28;7.67;;;6.97;;
8861;SDS011;4799;50.996;4.754;2024-01-06T01:48:54;10.77;;;8.20;;
8861;SDS011;4799;50.996;4.754;2024-01-06T01:51:22;7.97;;;7.17;;
8861;SDS011;4799;50.996;4.754;2024-01-06T01:53:49;8.13;;;7.33;;
8861;SDS011;4799;50.996;4.754;2024-01-06T01:56:15;8.77;;;7.87;;
8861;SDS011;4799;50.996;4.754;2024-01-06T01:58:41;9.00;;;8.17;;
8861;SDS011;4799;50.996;4.754;2024-01-06T02:01:08;8.37;;;7.47;;
8861;SDS011;4799;50.996;4.754;2024-01-06T02:03:35;9.73;;;7.67;;
8861;SDS011;4799;50.996;4.754;2024-01-06T02:06:01;9.33;;;8.20;;
8861;SDS011;4799;50.996;4.754;2024-01-06T02:08:27;9.97;;;8.77;;
8861;SDS011;4799;50.996;4.754;2024-01-06T02:10:56;8.47;;;7.67;;
8861;SDS011;4799;50.996;4.754;2024-01-06T02:13:22;8.90;;;7.70;;
8861;SDS011;4799;50.996;4.754;2024-01-06T02:15:49;8.20;;;7.17;;
8861;SDS011;4799;50.996;4.754;2024-01-06T02:18:15;9.93;;;7.63;;
8861;SDS011;4799;50.996;4.754;2024-01-06T02:20:44;9.20;;;8.20;;
8861;SDS011;4799;50.996;4.754;2024-01-06T02:23:13;8.77;;;7.40;;
8861;SDS011;4799;50.996;4.754;2024-01-06T02:25:39;11.57;;;7.93;;
8861;SDS011;4799;50.996;4.754;2024-01-06T02:28:04;9.03;;;8.00;;
8861;SDS011;4799;50.996;4.754;2024-01-06T02:30:30;11.40;;;8.47;;
8861;SDS011;4799;50.996;4.754;2024-01-06T02:32:56;11.47;;;9.70;;
8861;SDS011;4799;50.996;4.754;2024-01-06T02:35:21;15.57;;;11.93;;
8861;SDS011;4799;50.996;4.754;2024-01-06T02:37:47;17.33;;;13.17;;
8861;SDS011;4799;50.996;4.754;2024-01-06T02:40:13;21.70;;;14.30;;
8861;SDS011;4799;50.996;4.754;2024-01-06T02:42:39;18.53;;;14.77;;
8861;SDS011;4799;50.996;4.754;2024-01-06T02:45:06;23.87;;;16.10;;
8861;SDS011;4799;50.996;4.754;2024-01-06T02:47:32;22.57;;;16.17;;
8861;SDS011;4799;50.996;4.754;2024-01-06T02:49:58;23.63;;;17.07;;
8861;SDS011;4799;50.996;4.754;2024-01-06T02:52:24;23.50;;;17.50;;
8861;SDS011;4799;50.996;4.754;2024-01-06T02:54:49;32.00;;;19.43;;
8861;SDS011;4799;50.996;4.754;2024-01-06T02:57:15;25.87;;;18.37;;
8861;SDS011;4799;50.996;4.754;2024-01-06T02:59:41;27.07;;;19.10;;
8861;SDS011;4799;50.996;4.754;2024-01-06T03:02:07;31.67;;;21.07;;
8861;SDS011;4799;50.996;4.754;2024-01-06T03:04:32;27.60;;;20.10;;
8861;SDS011;4799;50.996;4.754;2024-01-06T03:06:58;25.07;;;19.17;;
8861;SDS011;4799;50.996;4.754;2024-01-06T03:09:24;25.40;;;18.10;;
8861;SDS011;4799;50.996;4.754;2024-01-06T03:11:49;24.23;;;19.20;;
8861;SDS011;4799;50.996;4.754;2024-01-06T03:14:15;23.20;;;18.37;;
8861;SDS011;4799;50.996;4.754;2024-01-06T03:16:41;26.23;;;19.20;;
8861;SDS011;4799;50.996;4.754;2024-01-06T03:19:07;22.97;;;18.43;;
8861;SDS011;4799;50.996;4.754;2024-01-06T03:21:32;22.97;;;18.27;;
8861;SDS011;4799;50.996;4.754;2024-01-06T03:23:58;21.73;;;18.30;;
8861;SDS011;4799;50.996;4.754;2024-01-06T03:26:24;26.87;;;19.77;;
8861;SDS011;4799;50.996;4.754;2024-01-06T03:28:49;26.07;;;20.30;;
8861;SDS011;4799;50.996;4.754;2024-01-06T03:31:15;29.27;;;20.77;;
8861;SDS011;4799;50.996;4.754;2024-01-06T03:33:42;27.37;;;20.90;;
8861;SDS011;4799;50.996;4.754;2024-01-06T03:36:09;27.60;;;19.60;;
8861;SDS011;4799;50.996;4.754;2024-01-06T03:38:35;26.33;;;20.47;;
8861;SDS011;4799;50.996;4.754;2024-01-06T03:41:00;27.50;;;20.53;;
8861;SDS011;4799;50.996;4.754;2024-01-06T03:43:26;32.40;;;22.00;;
8861;SDS011;4799;50.996;4.754;2024-01-06T03:45:52;28.67;;;21.50;;
8861;SDS011;4799;50.996;4.754;2024-01-06T03:48:18;28.57;;;20.90;;
8861;SDS011;4799;50.996;4.754;2024-01-06T03:50:43;38.47;;;24.27;;
8861;SDS011;4799;50.996;4.754;2024-01-06T03:53:09;29.77;;;23.10;;
8861;SDS011;4799;50.996;4.754;2024-01-06T03:55:35;28.50;;;22.93;;
8861;SDS011;4799;50.996;4.754;2024-01-06T03:58:00;35.03;;;24.00;;
8861;SDS011;4799;50.996;4.754;2024-01-06T04:00:26;28.97;;;22.30;;
8861;SDS011;4799;50.996;4.754;2024-01-06T04:02:52;35.70;;;23.70;;
8861;SDS011;4799;50.996;4.754;2024-01-06T04:05:17;31.63;;;22.87;;
8861;SDS011;4799;50.996;4.754;2024-01-06T04:07:43;28.50;;;21.57;;
8861;SDS011;4799;50.996;4.754;2024-01-06T04:10:09;30.00;;;21.33;;
8861;SDS011;4799;50.996;4.754;2024-01-06T04:12:35;28.07;;;20.63;;
8861;SDS011;4799;50.996;4.754;2024-01-06T04:15:00;29.10;;;21.60;;
8861;SDS011;4799;50.996;4.754;2024-01-06T04:17:26;28.17;;;21.20;;
8861;SDS011;4799;50.996;4.754;2024-01-06T04:19:52;28.07;;;20.80;;
8861;SDS011;4799;50.996;4.754;2024-01-06T04:22:18;27.30;;;19.67;;
8861;SDS011;4799;50.996;4.754;2024-01-06T04:24:44;27.43;;;19.73;;
8861;SDS011;4799;50.996;4.754;2024-01-06T04:27:10;25.90;;;19.30;;
8861;SDS011;4799;50.996;4.754;2024-01-06T04:29:35;24.90;;;18.87;;
8861;SDS011;4799;50.996;4.754;2024-01-06T04:32:01;28.13;;;19.53;;
8861;SDS011;4799;50.996;4.754;2024-01-06T04:34:27;27.17;;;20.43;;
8861;SDS011;4799;50.996;4.754;2024-01-06T04:36:53;26.63;;;19.37;;
8861;SDS011;4799;50.996;4.754;2024-01-06T04:39:19;26.30;;;19.20;;
8861;SDS011;4799;50.996;4.754;2024-01-06T04:41:44;25.53;;;19.87;;
8861;SDS011;4799;50.996;4.754;2024-01-06T04:44:10;25.53;;;19.70;;
8861;SDS011;4799;50.996;4.754;2024-01-06T04:46:36;23.37;;;19.47;;
8861;SDS011;4799;50.996;4.754;2024-01-06T04:49:01;24.07;;;19.77;;
8861;SDS011;4799;50.996;4.754;2024-01-06T04:51:27;19.73;;;17.63;;
8861;SDS011;4799;50.996;4.754;2024-01-06T04:53:53;19.60;;;17.50;;
8861;SDS011;4799;50.996;4.754;2024-01-06T04:56:19;18.67;;;16.70;;
8861;SDS011;4799;50.996;4.754;2024-01-06T04:58:44;18.13;;;16.23;;
8861;SDS011;4799;50.996;4.754;2024-01-06T05:01:10;18.87;;;16.73;;
8861;SDS011;4799;50.996;4.754;2024-01-06T05:03:37;17.00;;;15.13;;
8861;SDS011;4799;50.996;4.754;2024-01-06T05:06:02;18.87;;;16.33;;
8861;SDS011;4799;50.996;4.754;2024-01-06T05:08:29;17.50;;;15.70;;
8861;SDS011;4799;50.996;4.754;2024-01-06T05:10:56;17.07;;;15.27;;
8861;SDS011;4799;50.996;4.754;2024-01-06T05:13:21;19.03;;;16.53;;
8861;SDS011;4799;50.996;4.754;2024-01-06T05:15:47;20.23;;;17.20;;
8861;SDS011;4799;50.996;4.754;2024-01-06T05:18:13;18.53;;;16.30;;
8861;SDS011;4799;50.996;4.754;2024-01-06T05:20:39;18.53;;;16.53;;
8861;SDS011;4799;50.996;4.754;2024-01-06T05:23:06;19.47;;;17.47;;
8861;SDS011;4799;50.996;4.754;2024-01-06T05:25:32;19.50;;;16.97;;
8861;SDS011;4799;50.996;4.754;2024-01-06T05:27:58;20.87;;;17.60;;
8861;SDS011;4799;50.996;4.754;2024-01-06T05:30:24;21.57;;;18.90;;
8861;SDS011;4799;50.996;4.754;2024-01-06T05:32:49;20.50;;;17.63;;
8861;SDS011;4799;50.996;4.754;2024-01-06T05:35:15;20.93;;;18.00;;
8861;SDS011;4799;50.996;4.754;2024-01-06T05:37:41;19.60;;;17.50;;
8861;SDS011;4799;50.996;4.754;2024-01-06T05:40:07;20.10;;;17.97;;
8861;SDS011;4799;50.996;4.754;2024-01-06T05:42:34;19.77;;;17.63;;
8861;SDS011;4799;50.996;4.754;2024-01-06T05:45:00;19.77;;;17.63;;
8861;SDS011;4799;50.996;4.754;2024-01-06T05:47:25;20.97;;;18.37;;
8861;SDS011;4799;50.996;4.754;2024-01-06T05:49:51;21.03;;;17.67;;
8861;SDS011;4799;50.996;4.754;2024-01-06T05:52:17;19.20;;;17.30;;
8861;SDS011;4799;50.996;4.754;2024-01-06T05:54:43;22.10;;;18.43;;
8861;SDS011;4799;50.996;4.754;2024-01-06T05:57:08;20.77;;;18.33;;
8861;SDS011;4799;50.996;4.754;2024-01-06T05:59:34;23.63;;;19.87;;
8861;SDS011;4799;50.996;4.754;2024-01-06T06:02:00;21.87;;;18.33;;
8861;SDS011;4799;50.996;4.754;2024-01-06T06:04:26;20.37;;;18.13;;
8861;SDS011;4799;50.996;4.754;2024-01-06T06:06:52;20.57;;;17.40;;
8861;SDS011;4799;50.996;4.754;2024-01-06T06:09:18;17.80;;;15.47;;
8861;SDS011;4799;50.996;4.754;2024-01-06T06:11:45;17.30;;;15.60;;
8861;SDS011;4799;50.996;4.754;2024-01-06T06:14:11;15.43;;;14.03;;
8861;SDS011;4799;50.996;4.754;2024-01-06T06:16:38;14.87;;;13.47;;
8861;SDS011;4799;50.996;4.754;2024-01-06T06:19:03;12.83;;;11.63;;
8861;SDS011;4799;50.996;4.754;2024-01-06T06:21:29;10.23;;;9.13;;
8861;SDS011;4799;50.996;4.754;2024-01-06T06:23:55;11.33;;;10.33;;
8861;SDS011;4799;50.996;4.754;2024-01-06T06:26:20;11.63;;;10.53;;
8861;SDS011;4799;50.996;4.754;2024-01-06T06:28:46;11.97;;;10.80;;
8861;SDS011;4799;50.996;4.754;2024-01-06T06:31:12;12.40;;;11.20;;
8861;SDS011;4799;50.996;4.754;2024-01-06T06:33:38;12.67;;;11.57;;
8861;SDS011;4799;50.996;4.754;2024-01-06T06:36:04;11.20;;;10.20;;
8861;SDS011;4799;50.996;4.754;2024-01-06T06:38:31;13.03;;;11.73;;
8861;SDS011;4799;50.996;4.754;2024-01-06T06:40:56;12.97;;;11.60;;
8861;SDS011;4799;50.996;4.754;2024-01-06T06:43:22;13.23;;;12.03;;
8861;SDS011;4799;50.996;4.754;2024-01-06T06:45:48;13.50;;;12.30;;
8861;SDS011;4799;50.996;4.754;2024-01-06T06:48:13;14.17;;;12.77;;
8861;SDS011;4799;50.996;4.754;2024-01-06T06:50:39;14.13;;;12.93;;
8861;SDS011;4799;50.996;4.754;2024-01-06T06:53:06;13.90;;;12.57;;
8861;SDS011;4799;50.996;4.754;2024-01-06T06:55:32;14.33;;;13.10;;
8861;SDS011;4799;50.996;4.754;2024-01-06T06:57:58;15.17;;;13.87;;
8861;SDS011;4799;50.996;4.754;2024-01-06T07:00:24;15.03;;;13.53;;
8861;SDS011;4799;50.996;4.754;2024-01-06T07:02:50;14.83;;;13.50;;
8861;SDS011;4799;50.996;4.754;2024-01-06T07:05:16;16.13;;;14.53;;
8861;SDS011;4799;50.996;4.754;2024-01-06T07:07:42;16.43;;;13.90;;
8861;SDS011;4799;50.996;4.754;2024-01-06T07:10:11;15.70;;;14.10;;
8861;SDS011;4799;50.996;4.754;2024-01-06T07:12:38;14.40;;;13.00;;
8861;SDS011;4799;50.996;4.754;2024-01-06T07:15:03;14.80;;;13.37;;
8861;SDS011;4799;50.996;4.754;2024-01-06T07:17:30;15.10;;;13.50;;
8861;SDS011;4799;50.996;4.754;2024-01-06T07:19:55;13.93;;;12.53;;
8861;SDS011;4799;50.996;4.754;2024-01-06T07:22:21;14.90;;;13.40;;
8861;SDS011;4799;50.996;4.754;2024-01-06T07:24:47;15.73;;;14.13;;
8861;SDS011;4799;50.996;4.754;2024-01-06T07:27:13;15.77;;;14.20;;
8861;SDS011;4799;50.996;4.754;2024-01-06T07:29:40;15.50;;;13.90;;
8861;SDS011;4799;50.996;4.754;2024-01-06T07:32:05;16.00;;;14.40;;
8861;SDS011;4799;50.996;4.754;2024-01-06T07:34:31;15.87;;;14.23;;
8861;SDS011;4799;50.996;4.754;2024-01-06T07:36:57;16.93;;;15.13;;
8861;SDS011;4799;50.996;4.754;2024-01-06T07:39:23;15.97;;;14.33;;
8861;SDS011;4799;50.996;4.754;2024-01-06T07:41:49;16.37;;;14.77;;
8861;SDS011;4799;50.996;4.754;2024-01-06T07:44:15;15.93;;;14.40;;
8861;SDS011;4799;50.996;4.754;2024-01-06T07:46:41;16.67;;;14.93;;
8861;SDS011;4799;50.996;4.754;2024-01-06T07:49:07;16.30;;;14.70;;
8861;SDS011;4799;50.996;4.754;2024-01-06T07:51:33;16.63;;;14.97;;
8861;SDS011;4799;50.996;4.754;2024-01-06T07:54:00;17.27;;;15.67;;
8861;SDS011;4799;50.996;4.754;2024-01-06T07:56:26;17.13;;;15.30;;
8861;SDS011;4799;50.996;4.754;2024-01-06T07:58:52;17.03;;;15.33;;
8861;SDS011;4799;50.996;4.754;2024-01-06T08:01:18;18.63;;;15.60;;
8861;SDS011;4799;50.996;4.754;2024-01-06T08:03:44;16.73;;;15.03;;
8861;SDS011;4799;50.996;4.754;2024-01-06T08:06:09;17.10;;;15.40;;
8861;SDS011;4799;50.996;4.754;2024-01-06T08:08:35;17.83;;;15.97;;
8861;SDS011;4799;50.996;4.754;2024-01-06T08:11:01;17.23;;;15.30;;
8861;SDS011;4799;50.996;4.754;2024-01-06T08:13:27;15.67;;;14.17;;
8861;SDS011;4799;50.996;4.754;2024-01-06T08:15:53;16.07;;;14.47;;
8861;SDS011;4799;50.996;4.754;2024-01-06T08:18:18;14.90;;;13.40;;
8861;SDS011;4799;50.996;4.754;2024-01-06T08:20:46;15.53;;;14.03;;
8861;SDS011;4799;50.996;4.754;2024-01-06T08:23:12;14.47;;;13.00;;
8861;SDS011;4799;50.996;4.754;2024-01-06T08:25:37;14.47;;;12.93;;
8861;SDS011;4799;50.996;4.754;2024-01-06T08:28:03;14.27;;;12.87;;
8861;SDS011;4799;50.996;4.754;2024-01-06T08:30:29;15.77;;;13.47;;
8861;SDS011;4799;50.996;4.754;2024-01-06T08:32:55;14.33;;;12.87;;
8861;SDS011;4799;50.996;4.754;2024-01-06T08:35:21;13.67;;;12.37;;
8861;SDS011;4799;50.996;4.754;2024-01-06T08:37:46;13.23;;;11.93;;
8861;SDS011;4799;50.996;4.754;2024-01-06T08:40:12;11.40;;;10.30;;
8861;SDS011;4799;50.996;4.754;2024-01-06T08:42:38;11.27;;;10.17;;
8861;SDS011;4799;50.996;4.754;2024-01-06T08:45:04;12.17;;;10.80;;
8861;SDS011;4799;50.996;4.754;2024-01-06T08:47:30;11.37;;;10.17;;
8861;SDS011;4799;50.996;4.754;2024-01-06T08:49:56;11.37;;;10.27;;
8861;SDS011;4799;50.996;4.754;2024-01-06T08:52:22;12.30;;;11.10;;
8861;SDS011;4799;50.996;4.754;2024-01-06T08:54:47;11.27;;;10.17;;
8861;SDS011;4799;50.996;4.754;2024-01-06T08:57:14;11.77;;;10.57;;
8861;SDS011;4799;50.996;4.754;2024-01-06T08:59:40;11.00;;;9.93;;
8861;SDS011;4799;50.996;4.754;2024-01-06T09:02:06;11.60;;;10.40;;
8861;SDS011;4799;50.996;4.754;2024-01-06T09:04:32;10.77;;;9.67;;
8861;SDS011;4799;50.996;4.754;2024-01-06T09:06:58;11.40;;;10.20;;
8861;SDS011;4799;50.996;4.754;2024-01-06T09:09:24;11.33;;;10.23;;
8861;SDS011;4799;50.996;4.754;2024-01-06T09:11:49;11.23;;;10.10;;
8861;SDS011;4799;50.996;4.754;2024-01-06T09:14:18;11.40;;;10.37;;
8861;SDS011;4799;50.996;4.754;2024-01-06T09:16:44;10.67;;;9.57;;
8861;SDS011;4799;50.996;4.754;2024-01-06T09:19:10;11.37;;;10.27;;
8861;SDS011;4799;50.996;4.754;2024-01-06T09:21:36;11.07;;;9.80;;
8861;SDS011;4799;50.996;4.754;2024-01-06T09:24:02;10.67;;;9.57;;
8861;SDS011;4799;50.996;4.754;2024-01-06T09:26:34;11.20;;;10.13;;
8861;SDS011;4799;50.996;4.754;2024-01-06T09:29:00;11.17;;;10.00;;
8861;SDS011;4799;50.996;4.754;2024-01-06T09:31:27;10.13;;;9.13;;
8861;SDS011;4799;50.996;4.754;2024-01-06T09:33:53;10.50;;;9.50;;
8861;SDS011;4799;50.996;4.754;2024-01-06T09:36:19;10.60;;;9.50;;
8861;SDS011;4799;50.996;4.754;2024-01-06T09:38:44;9.73;;;8.83;;
8861;SDS011;4799;50.996;4.754;2024-01-06T09:41:10;10.03;;;9.13;;
8861;SDS011;4799;50.996;4.754;2024-01-06T09:43:36;10.53;;;9.40;;
8861;SDS011;4799;50.996;4.754;2024-01-06T09:46:06;11.00;;;9.90;;
8861;SDS011;4799;50.996;4.754;2024-01-06T09:48:40;10.83;;;9.77;;
8861;SDS011;4799;50.996;4.754;2024-01-06T09:51:11;10.87;;;9.77;;
8861;SDS011;4799;50.996;4.754;2024-01-06T09:56:24;10.80;;;9.77;;
8861;SDS011;4799;50.996;4.754;2024-01-06T09:58:51;11.77;;;10.50;;
8861;SDS011;4799;50.996;4.754;2024-01-06T10:01:17;11.13;;;9.97;;
8861;SDS011;4799;50.996;4.754;2024-01-06T10:03:43;12.17;;;10.90;;
8861;SDS011;4799;50.996;4.754;2024-01-06T10:06:10;11.53;;;10.33;;
8861;SDS011;4799;50.996;4.754;2024-01-06T10:08:38;11.43;;;10.33;;
8861;SDS011;4799;50.996;4.754;2024-01-06T10:11:05;11.67;;;10.47;;
8861;SDS011;4799;50.996;4.754;2024-01-06T10:13:33;10.90;;;9.90;;
8861;SDS011;4799;50.996;4.754;2024-01-06T10:15:59;10.07;;;9.07;;
8861;SDS011;4799;50.996;4.754;2024-01-06T10:18:25;10.17;;;8.37;;
8861;SDS011;4799;50.996;4.754;2024-01-06T10:20:53;9.43;;;8.63;;
8861;SDS011;4799;50.996;4.754;2024-01-06T10:23:19;8.37;;;7.67;;
8861;SDS011;4799;50.996;4.754;2024-01-06T10:25:51;8.20;;;7.40;;
8861;SDS011;4799;50.996;4.754;2024-01-06T10:28:18;8.93;;;7.30;;
8861;SDS011;4799;50.996;4.754;2024-01-06T10:30:43;7.30;;;6.60;;
8861;SDS011;4799;50.996;4.754;2024-01-06T10:33:09;7.40;;;6.70;;
8861;SDS011;4799;50.996;4.754;2024-01-06T10:35:36;7.33;;;6.63;;
8861;SDS011;4799;50.996;4.754;2024-01-06T10:38:02;6.60;;;5.97;;
8861;SDS011;4799;50.996;4.754;2024-01-06T10:40:28;6.47;;;5.87;;
8861;SDS011;4799;50.996;4.754;2024-01-06T10:42:54;6.80;;;6.20;;
8861;SDS011;4799;50.996;4.754;2024-01-06T10:45:22;6.73;;;6.13;;
8861;SDS011;4799;50.996;4.754;2024-01-06T10:47:48;8.23;;;7.43;;
8861;SDS011;4799;50.996;4.754;2024-01-06T10:50:18;8.33;;;7.53;;
8861;SDS011;4799;50.996;4.754;2024-01-06T10:52:44;8.00;;;7.30;;
8861;SDS011;4799;50.996;4.754;2024-01-06T10:55:12;7.27;;;6.57;;
8861;SDS011;4799;50.996;4.754;2024-01-06T10:57:43;7.53;;;6.83;;
8861;SDS011;4799;50.996;4.754;2024-01-06T11:00:09;6.90;;;6.20;;
8861;SDS011;4799;50.996;4.754;2024-01-06T11:02:35;8.53;;;6.57;;
8861;SDS011;4799;50.996;4.754;2024-01-06T11:05:02;6.43;;;5.90;;
8861;SDS011;4799;50.996;4.754;2024-01-06T11:07:32;6.80;;;6.10;;
8861;SDS011;4799;50.996;4.754;2024-01-06T11:10:09;5.90;;;5.30;;
8861;SDS011;4799;50.996;4.754;2024-01-06T11:12:41;5.57;;;5.07;;
8861;SDS011;4799;50.996;4.754;2024-01-06T11:15:07;5.87;;;5.37;;
8861;SDS011;4799;50.996;4.754;2024-01-06T11:20:23;6.30;;;5.70;;
8861;SDS011;4799;50.996;4.754;2024-01-06T11:22:52;5.93;;;5.43;;
8861;SDS011;4799;50.996;4.754;2024-01-06T11:25:18;6.00;;;5.40;;
8861;SDS011;4799;50.996;4.754;2024-01-06T11:27:47;6.27;;;5.67;;
8861;SDS011;4799;50.996;4.754;2024-01-06T11:32:55;6.70;;;6.10;;
8861;SDS011;4799;50.996;4.754;2024-01-06T11:35:25;6.67;;;6.00;;
8861;SDS011;4799;50.996;4.754;2024-01-06T11:37:55;6.93;;;6.30;;
8861;SDS011;4799;50.996;4.754;2024-01-06T11:43:01;7.63;;;6.20;;
8861;SDS011;4799;50.996;4.754;2024-01-06T11:45:37;5.90;;;5.40;;
8861;SDS011;4799;50.996;4.754;2024-01-06T11:48:07;6.63;;;6.13;;
8861;SDS011;4799;50.996;4.754;2024-01-06T11:50:34;6.97;;;6.27;;
8861;SDS011;4799;50.996;4.754;2024-01-06T11:53:01;7.30;;;6.60;;
8861;SDS011;4799;50.996;4.754;2024-01-06T11:55:28;7.07;;;6.40;;
8861;SDS011;4799;50.996;4.754;2024-01-06T11:57:56;6.20;;;5.70;;
8861;SDS011;4799;50.996;4.754;2024-01-06T12:00:31;5.63;;;5.20;;
8861;SDS011;4799;50.996;4.754;2024-01-06T12:03:04;6.20;;;5.60;;
8861;SDS011;4799;50.996;4.754;2024-01-06T12:05:30;5.50;;;5.10;;
8861;SDS011;4799;50.996;4.754;2024-01-06T12:07:56;6.10;;;5.50;;
8861;SDS011;4799;50.996;4.754;2024-01-06T12:10:27;5.37;;;4.87;;
8861;SDS011;4799;50.996;4.754;2024-01-06T12:12:55;5.50;;;5.00;;
8861;SDS011;4799;50.996;4.754;2024-01-06T12:15:28;5.77;;;5.17;;
8861;SDS011;4799;50.996;4.754;2024-01-06T12:17:55;5.85;;;5.28;;
8861;SDS011;4799;50.996;4.754;2024-01-06T12:20:22;5.63;;;5.13;;
8861;SDS011;4799;50.996;4.754;2024-01-06T12:22:51;5.77;;;5.17;;
8861;SDS011;4799;50.996;4.754;2024-01-06T12:25:17;6.57;;;6.07;;
8861;SDS011;4799;50.996;4.754;2024-01-06T12:27:44;6.80;;;6.10;;
8861;SDS011;4799;50.996;4.754;2024-01-06T12:30:13;7.50;;;6.80;;
8861;SDS011;4799;50.996;4.754;2024-01-06T12:32:44;7.43;;;6.67;;
8861;SDS011;4799;50.996;4.754;2024-01-06T12:35:18;7.97;;;6.93;;
8861;SDS011;4799;50.996;4.754;2024-01-06T12:37:45;8.23;;;7.37;;
8861;SDS011;4799;50.996;4.754;2024-01-06T12:40:12;8.10;;;7.40;;
8861;SDS011;4799;50.996;4.754;2024-01-06T12:42:38;8.50;;;7.70;;
8861;SDS011;4799;50.996;4.754;2024-01-06T12:45:05;8.23;;;7.53;;
8861;SDS011;4799;50.996;4.754;2024-01-06T12:47:32;9.63;;;8.63;;
8861;SDS011;4799;50.996;4.754;2024-01-06T12:49:58;8.67;;;7.93;;
8861;SDS011;4799;50.996;4.754;2024-01-06T12:52:23;8.63;;;7.67;;
8861;SDS011;4799;50.996;4.754;2024-01-06T12:54:49;8.13;;;7.43;;
8861;SDS011;4799;50.996;4.754;2024-01-06T12:57:15;8.57;;;7.77;;
8861;SDS011;4799;50.996;4.754;2024-01-06T12:59:41;8.47;;;7.67;;
8861;SDS011;4799;50.996;4.754;2024-01-06T13:02:08;9.50;;;8.20;;
8861;SDS011;4799;50.996;4.754;2024-01-06T13:04:33;8.80;;;7.97;;
8861;SDS011;4799;50.996;4.754;2024-01-06T13:06:59;9.90;;;9.00;;
8861;SDS011;4799;50.996;4.754;2024-01-06T13:09:26;9.20;;;8.23;;
8861;SDS011;4799;50.996;4.754;2024-01-06T13:11:52;9.00;;;8.10;;
8861;SDS011;4799;50.996;4.754;2024-01-06T13:14:20;10.10;;;8.37;;
8861;SDS011;4799;50.996;4.754;2024-01-06T13:16:46;8.93;;;8.10;;
8861;SDS011;4799;50.996;4.754;2024-01-06T13:19:12;8.47;;;7.67;;
8861;SDS011;4799;50.996;4.754;2024-01-06T13:21:38;8.83;;;8.03;;
8861;SDS011;4799;50.996;4.754;2024-01-06T13:24:05;8.30;;;7.50;;
8861;SDS011;4799;50.996;4.754;2024-01-06T13:26:32;8.43;;;7.63;;
8861;SDS011;4799;50.996;4.754;2024-01-06T13:28:58;7.73;;;6.93;;
8861;SDS011;4799;50.996;4.754;2024-01-06T13:31:24;7.50;;;6.80;;
8861;SDS011;4799;50.996;4.754;2024-01-06T13:33:49;8.07;;;6.63;;
8861;SDS011;4799;50.996;4.754;2024-01-06T13:36:17;7.10;;;6.43;;
8861;SDS011;4799;50.996;4.754;2024-01-06T13:38:45;6.70;;;6.10;;
8861;SDS011;4799;50.996;4.754;2024-01-06T13:41:11;5.97;;;5.43;;
8861;SDS011;4799;50.996;4.754;2024-01-06T13:43:37;6.03;;;5.43;;
8861;SDS011;4799;50.996;4.754;2024-01-06T13:46:02;7.30;;;5.43;;
8861;SDS011;4799;50.996;4.754;2024-01-06T13:48:28;5.90;;;5.40;;
8861;SDS011;4799;50.996;4.754;2024-01-06T13:50:54;6.83;;;6.20;;
8861;SDS011;4799;50.996;4.754;2024-01-06T13:53:20;6.90;;;5.73;;
8861;SDS011;4799;50.996;4.754;2024-01-06T13:55:45;6.97;;;6.37;;
8861;SDS011;4799;50.996;4.754;2024-01-06T13:58:11;7.43;;;6.70;;
8861;SDS011;4799;50.996;4.754;2024-01-06T14:00:37;6.50;;;6.00;;
8861;SDS011;4799;50.996;4.754;2024-01-06T14:03:03;6.40;;;5.80;;
8861;SDS011;4799;50.996;4.754;2024-01-06T14:05:29;7.10;;;6.40;;
8861;SDS011;4799;50.996;4.754;2024-01-06T14:07:56;6.73;;;6.13;;
8861;SDS011;4799;50.996;4.754;2024-01-06T14:10:22;7.50;;;6.80;;
8861;SDS011;4799;50.996;4.754;2024-01-06T14:12:47;7.07;;;6.43;;
8861;SDS011;4799;50.996;4.754;2024-01-06T14:15:13;7.67;;;6.97;;
8861;SDS011;4799;50.996;4.754;2024-01-06T14:17:39;7.00;;;6.40;;
8861;SDS011;4799;50.996;4.754;2024-01-06T14:20:06;7.70;;;7.00;;
8861;SDS011;4799;50.996;4.754;2024-01-06T14:22:34;7.47;;;6.70;;
8861;SDS011;4799;50.996;4.754;2024-01-06T14:25:00;7.67;;;5.80;;
8861;SDS011;4799;50.996;4.754;2024-01-06T14:27:26;6.43;;;5.83;;
8861;SDS011;4799;50.996;4.754;2024-01-06T14:29:51;6.60;;;5.90;;
8861;SDS011;4799;50.996;4.754;2024-01-06T14:32:20;7.00;;;6.30;;
8861;SDS011;4799;50.996;4.754;2024-01-06T14:34:48;6.97;;;6.27;;
8861;SDS011;4799;50.996;4.754;2024-01-06T14:37:16;6.40;;;5.80;;
8861;SDS011;4799;50.996;4.754;2024-01-06T14:39:41;7.53;;;5.20;;
8861;SDS011;4799;50.996;4.754;2024-01-06T14:42:07;6.13;;;5.53;;
8861;SDS011;4799;50.996;4.754;2024-01-06T14:44:33;5.77;;;5.27;;
8861;SDS011;4799;50.996;4.754;2024-01-06T14:46:58;6.43;;;5.77;;
8861;SDS011;4799;50.996;4.754;2024-01-06T14:49:24;6.57;;;5.87;;
8861;SDS011;4799;50.996;4.754;2024-01-06T14:51:50;6.10;;;5.60;;
8861;SDS011;4799;50.996;4.754;2024-01-06T14:54:16;6.97;;;6.10;;
8861;SDS011;4799;50.996;4.754;2024-01-06T14:56:41;7.97;;;6.13;;
8861;SDS011;4799;50.996;4.754;2024-01-06T14:59:07;6.57;;;5.90;;
8861;SDS011;4799;50.996;4.754;2024-01-06T15:01:33;6.90;;;6.20;;
8861;SDS011;4799;50.996;4.754;2024-01-06T15:03:59;7.80;;;7.00;;
8861;SDS011;4799;50.996;4.754;2024-01-06T15:06:25;7.00;;;6.30;;